METAR UND TAF INFORMATION

METAR FOR WADD
ADDS - METARS form results

(0125 UTC 26 June 2022)
Data provider http://aviationweather.gov/metar/data/
 
METAR text: WADD 260100Z 11012KT 9999 SCT015 28/25 Q1011 NOSIG
Conditions at: WADD (BALI INTL , ID) observed 0100 UTC 26 June 2022
Temperature: 28.0°C (82°F)
Dewpoint: 25.0°C (77°F) [RH = 84%]
Pressure (altimeter): 29.85 inches Hg (1011.0 mb)
Winds: from the ESE (110 degrees) at 14 MPH (12 knots; 6.2 m/s)
Visibility: 6 or more miles (10+ km)
Ceiling: at least 12,000 feet AGL
Clouds: scattered clouds at 1500 feet AGL
Weather: no significant weather observed at this time

METAR text: WADD 260030Z 12011KT 9999 SCT016 28/25 Q1011 NOSIG
Conditions at: WADD (BALI INTL , ID) observed 0030 UTC 26 June 2022
Temperature: 28.0°C (82°F)
Dewpoint: 25.0°C (77°F) [RH = 84%]
Pressure (altimeter): 29.85 inches Hg (1011.0 mb)
Winds: from the ESE (120 degrees) at 13 MPH (11 knots; 5.7 m/s)
Visibility: 6 or more miles (10+ km)
Ceiling: at least 12,000 feet AGL
Clouds: scattered clouds at 1600 feet AGL
Weather: no significant weather observed at this time

Forecast for: WADD (BALI INTL , ID)
Text: TAF WADD 252300Z 2600/2700 12012KT 9999 SCT016
Forecast period: 0000 UTC 26 June 2022 to 0000 UTC 27 June 2022
Forecast type: FROM: standard forecast or significant change
Winds: from the ESE (120 degrees) at 14 MPH (12 knots; 6.2 m/s)
Visibility: 6 or more miles (10+ km)
Ceiling: at least 12,000 feet AGL
Clouds: scattered clouds at 1600 feet AGL
Weather: no significant weather forecast for this period
Text: TEMPO 2603/2607 5000 TSRA FEW014CB BKN014
Forecast period: 0300 to 0700 UTC 26 June 2022
Forecast type: TEMPORARY: The following changes expected for less than half the time period
Visibility: 3 miles (5 km)
Ceiling: 1400 feet AGL
Clouds: few clouds at 1400 feet AGL
broken clouds at 1400 feet AGL
Weather: TSRA  (rain associated with thunderstorm(s))

 FLUGHAFENKARTE

 RUNWAY INFORMATION
Runway 09 Runway length 9790 ft Runway width 148 ft
Runway elevation 11 ft Runway displaced threshold 0 ft Runway heading 88
Runway 27 Runway length 9790 ft Runway width 148 ft
Runway elevation 12 ft Runway displaced threshold 0 ft Runway heading 268

 AIRPORT FREQUENCIES
Type APP Name DIRECTOR Frequency 119.7 MHZ
Type ATIS Name ATIS Frequency 126.2 MHZ
Type GND Name NGURAH GND Frequency 118.8 MHZ
Type INFO Name INFO Frequency 8.88 MHZ
Type TWR Name NGURAH TWR Frequency 118.1 MHZ
Type TMA Name RADAR Frequency 119.3 MHZ

 AIRPORT NEAR NAVIGATION AIDS
Type VOR-DME Name Bali Frequency 116200 KHZ
Type NDB Name Bali Frequency 230 KHZ